sensor_id;sensor_type;location;lat;lon;timestamp;pressure;altitude;pressure_sealevel;temperature;humidity
78210;BME280;67485;48.816;9.930;2023-06-10T00:01:41;96471.94;;;17.13;63.31
78210;BME280;67485;48.816;9.930;2023-06-10T00:04:08;96466.38;;;17.18;63.14
78210;BME280;67485;48.816;9.930;2023-06-10T00:06:34;96459.69;;;17.27;62.82
78210;BME280;67485;48.816;9.930;2023-06-10T00:09:04;96472.25;;;17.23;62.88
78210;BME280;67485;48.816;9.930;2023-06-10T00:11:40;96467.47;;;16.99;63.69
78210;BME280;67485;48.816;9.930;2023-06-10T00:14:06;96473.63;;;16.84;64.30
78210;BME280;67485;48.816;9.930;2023-06-10T00:16:32;96475.50;;;16.82;63.75
78210;BME280;67485;48.816;9.930;2023-06-10T00:19:04;96475.50;;;16.82;63.91
78210;BME280;67485;48.816;9.930;2023-06-10T00:21:32;96481.63;;;16.82;63.69
78210;BME280;67485;48.816;9.930;2023-06-10T00:24:07;96475.69;;;16.79;64.04
78210;BME280;67485;48.816;9.930;2023-06-10T00:26:38;96480.59;;;16.85;63.50
78210;BME280;67485;48.816;9.930;2023-06-10T00:29:04;96477.22;;;16.99;62.93
78210;BME280;67485;48.816;9.930;2023-06-10T00:31:31;96468.81;;;17.07;62.71
78210;BME280;67485;48.816;9.930;2023-06-10T00:33:57;96472.31;;;17.07;62.72
78210;BME280;67485;48.816;9.930;2023-06-10T00:36:24;96473.91;;;17.10;62.39
78210;BME280;67485;48.816;9.930;2023-06-10T00:38:49;96471.03;;;16.98;62.69
78210;BME280;67485;48.816;9.930;2023-06-10T00:41:15;96473.53;;;17.01;62.54
78210;BME280;67485;48.816;9.930;2023-06-10T00:43:41;96474.22;;;17.05;62.37
78210;BME280;67485;48.816;9.930;2023-06-10T00:46:07;96479.75;;;17.00;62.86
78210;BME280;67485;48.816;9.930;2023-06-10T00:48:33;96472.06;;;16.80;63.37
78210;BME280;67485;48.816;9.930;2023-06-10T00:50:59;96471.09;;;16.66;63.99
78210;BME280;67485;48.816;9.930;2023-06-10T00:53:26;96466.63;;;16.51;64.43
78210;BME280;67485;48.816;9.930;2023-06-10T00:55:52;96469.88;;;16.56;64.35
78210;BME280;67485;48.816;9.930;2023-06-10T00:58:18;96467.06;;;16.59;64.42
78210;BME280;67485;48.816;9.930;2023-06-10T01:00:44;96469.19;;;16.52;64.51
78210;BME280;67485;48.816;9.930;2023-06-10T01:03:13;96468.53;;;16.49;64.67
78210;BME280;67485;48.816;9.930;2023-06-10T01:05:39;96469.81;;;16.42;64.97
78210;BME280;67485;48.816;9.930;2023-06-10T01:08:19;96473.97;;;16.46;64.69
78210;BME280;67485;48.816;9.930;2023-06-10T01:10:59;96473.09;;;16.61;63.97
78210;BME280;67485;48.816;9.930;2023-06-10T01:13:26;96466.47;;;16.54;64.15
78210;BME280;67485;48.816;9.930;2023-06-10T01:15:58;96470.66;;;16.58;64.03
78210;BME280;67485;48.816;9.930;2023-06-10T01:18:30;96463.00;;;16.37;64.78
78210;BME280;67485;48.816;9.930;2023-06-10T01:20:57;96473.97;;;16.46;64.46
78210;BME280;67485;48.816;9.930;2023-06-10T01:23:23;96468.88;;;16.43;64.73
78210;BME280;67485;48.816;9.930;2023-06-10T01:26:03;96471.25;;;16.31;65.41
78210;BME280;67485;48.816;9.930;2023-06-10T01:28:49;96476.88;;;16.25;65.42
78210;BME280;67485;48.816;9.930;2023-06-10T01:31:31;96474.44;;;15.88;66.91
78210;BME280;67485;48.816;9.930;2023-06-10T01:34:00;96471.59;;;15.58;67.83
78210;BME280;67485;48.816;9.930;2023-06-10T01:36:28;96473.78;;;15.50;68.38
78210;BME280;67485;48.816;9.930;2023-06-10T01:38:55;96473.94;;;15.47;68.84
78210;BME280;67485;48.816;9.930;2023-06-10T01:41:21;96471.53;;;15.42;68.88
78210;BME280;67485;48.816;9.930;2023-06-10T01:43:48;96468.50;;;15.32;69.62
78210;BME280;67485;48.816;9.930;2023-06-10T01:46:14;96473.03;;;15.30;69.80
78210;BME280;67485;48.816;9.930;2023-06-10T01:48:41;96474.75;;;15.31;69.74
78210;BME280;67485;48.816;9.930;2023-06-10T01:51:08;96476.13;;;15.38;69.60
78210;BME280;67485;48.816;9.930;2023-06-10T01:53:35;96484.50;;;15.47;69.57
78210;BME280;67485;48.816;9.930;2023-06-10T01:56:01;96481.38;;;15.56;69.05
78210;BME280;67485;48.816;9.930;2023-06-10T01:58:28;96473.31;;;15.59;68.45
78210;BME280;67485;48.816;9.930;2023-06-10T02:00:54;96481.53;;;15.70;68.27
78210;BME280;67485;48.816;9.930;2023-06-10T02:03:20;96474.84;;;15.63;68.29
78210;BME280;67485;48.816;9.930;2023-06-10T02:05:46;96472.78;;;15.52;68.71
78210;BME280;67485;48.816;9.930;2023-06-10T02:08:11;96470.22;;;15.33;69.76
78210;BME280;67485;48.816;9.930;2023-06-10T02:10:37;96478.38;;;15.46;68.99
78210;BME280;67485;48.816;9.930;2023-06-10T02:13:03;96474.13;;;15.44;69.00
78210;BME280;67485;48.816;9.930;2023-06-10T02:15:28;96472.09;;;15.31;69.44
78210;BME280;67485;48.816;9.930;2023-06-10T02:17:54;96467.75;;;15.30;69.62
78210;BME280;67485;48.816;9.930;2023-06-10T02:20:21;96471.22;;;15.31;69.43
78210;BME280;67485;48.816;9.930;2023-06-10T02:22:47;96481.25;;;15.42;69.17
78210;BME280;67485;48.816;9.930;2023-06-10T02:25:12;96476.28;;;15.53;68.58
78210;BME280;67485;48.816;9.930;2023-06-10T02:27:38;96473.31;;;15.59;68.93
78210;BME280;67485;48.816;9.930;2023-06-10T02:30:05;96476.88;;;15.58;68.63
78210;BME280;67485;48.816;9.930;2023-06-10T02:32:34;96478.41;;;15.62;68.06
78210;BME280;67485;48.816;9.930;2023-06-10T02:35:00;96474.47;;;15.53;68.22
78210;BME280;67485;48.816;9.930;2023-06-10T02:37:27;96475.19;;;15.39;68.97
78210;BME280;67485;48.816;9.930;2023-06-10T02:39:54;96477.75;;;15.23;69.87
78210;BME280;67485;48.816;9.930;2023-06-10T02:42:20;96476.59;;;14.94;71.77
78210;BME280;67485;48.816;9.930;2023-06-10T02:44:47;96488.22;;;14.90;72.29
78210;BME280;67485;48.816;9.930;2023-06-10T02:47:18;96485.19;;;14.80;73.08
78210;BME280;67485;48.816;9.930;2023-06-10T02:49:44;96494.72;;;14.83;73.66
78210;BME280;67485;48.816;9.930;2023-06-10T02:52:10;96493.84;;;14.82;73.71
78210;BME280;67485;48.816;9.930;2023-06-10T02:54:37;96491.16;;;14.84;73.45
78210;BME280;67485;48.816;9.930;2023-06-10T02:57:05;96498.28;;;14.82;73.71
78210;BME280;67485;48.816;9.930;2023-06-10T02:59:31;96501.22;;;14.75;74.05
78210;BME280;67485;48.816;9.930;2023-06-10T03:01:57;96500.31;;;14.77;74.44
78210;BME280;67485;48.816;9.930;2023-06-10T03:04:25;96499.69;;;14.71;74.62
78210;BME280;67485;48.816;9.930;2023-06-10T03:07:00;96501.59;;;14.68;74.81
78210;BME280;67485;48.816;9.930;2023-06-10T03:09:31;96502.41;;;14.70;74.99
78210;BME280;67485;48.816;9.930;2023-06-10T03:11:59;96497.75;;;14.75;74.86
78210;BME280;67485;48.816;9.930;2023-06-10T03:14:27;96504.66;;;14.78;74.47
78210;BME280;67485;48.816;9.930;2023-06-10T03:16:53;96503.44;;;14.85;74.03
78210;BME280;67485;48.816;9.930;2023-06-10T03:19:22;96495.69;;;14.99;73.53
78210;BME280;67485;48.816;9.930;2023-06-10T03:22:07;96503.75;;;14.96;73.51
78210;BME280;67485;48.816;9.930;2023-06-10T03:24:34;96508.25;;;14.94;73.54
78210;BME280;67485;48.816;9.930;2023-06-10T03:27:02;96501.81;;;15.00;73.22
78210;BME280;67485;48.816;9.930;2023-06-10T03:29:31;96504.13;;;15.06;72.44
78210;BME280;67485;48.816;9.930;2023-06-10T03:31:57;96509.19;;;15.11;72.09
78210;BME280;67485;48.816;9.930;2023-06-10T03:34:23;96509.41;;;15.06;72.37
78210;BME280;67485;48.816;9.930;2023-06-10T03:36:50;96508.56;;;15.05;72.35
78210;BME280;67485;48.816;9.930;2023-06-10T03:39:16;96502.13;;;14.94;73.18
78210;BME280;67485;48.816;9.930;2023-06-10T03:41:42;96504.69;;;14.95;72.81
78210;BME280;67485;48.816;9.930;2023-06-10T03:44:09;96507.78;;;15.03;72.35
78210;BME280;67485;48.816;9.930;2023-06-10T03:46:34;96517.31;;;15.06;72.53
78210;BME280;67485;48.816;9.930;2023-06-10T03:49:01;96515.25;;;15.13;72.10
78210;BME280;67485;48.816;9.930;2023-06-10T03:51:27;96515.66;;;15.05;72.63
78210;BME280;67485;48.816;9.930;2023-06-10T03:53:53;96522.31;;;15.12;72.50
78210;BME280;67485;48.816;9.930;2023-06-10T03:56:19;96514.34;;;15.14;72.64
78210;BME280;67485;48.816;9.930;2023-06-10T03:58:44;96520.84;;;15.06;73.39
78210;BME280;67485;48.816;9.930;2023-06-10T04:01:10;96519.66;;;15.12;72.31
78210;BME280;67485;48.816;9.930;2023-06-10T04:03:38;96521.47;;;15.12;73.36
78210;BME280;67485;48.816;9.930;2023-06-10T04:06:05;96525.31;;;15.04;73.85
78210;BME280;67485;48.816;9.930;2023-06-10T04:08:30;96532.47;;;15.02;74.25
78210;BME280;67485;48.816;9.930;2023-06-10T04:10:59;96525.38;;;14.85;75.43
78210;BME280;67485;48.816;9.930;2023-06-10T04:13:26;96522.97;;;14.81;75.75
78210;BME280;67485;48.816;9.930;2023-06-10T04:15:55;96521.09;;;14.83;75.93
78210;BME280;67485;48.816;9.930;2023-06-10T04:18:21;96524.22;;;14.91;76.01
78210;BME280;67485;48.816;9.930;2023-06-10T04:20:48;96521.44;;;14.94;76.18
78210;BME280;67485;48.816;9.930;2023-06-10T04:23:13;96527.34;;;14.99;76.04
78210;BME280;67485;48.816;9.930;2023-06-10T04:25:41;96526.19;;;15.05;76.28
78210;BME280;67485;48.816;9.930;2023-06-10T04:28:07;96528.59;;;15.10;76.00
78210;BME280;67485;48.816;9.930;2023-06-10T04:30:33;96525.03;;;15.11;76.65
78210;BME280;67485;48.816;9.930;2023-06-10T04:32:59;96524.19;;;15.10;76.21
78210;BME280;67485;48.816;9.930;2023-06-10T04:35:26;96528.59;;;15.10;77.08
78210;BME280;67485;48.816;9.930;2023-06-10T04:37:53;96529.78;;;15.21;76.83
78210;BME280;67485;48.816;9.930;2023-06-10T04:40:20;96529.22;;;15.32;76.64
78210;BME280;67485;48.816;9.930;2023-06-10T04:42:46;96533.44;;;15.36;77.05
78210;BME280;67485;48.816;9.930;2023-06-10T04:45:13;96537.63;;;15.40;77.08
78210;BME280;67485;48.816;9.930;2023-06-10T04:47:39;96528.78;;;15.42;77.29
78210;BME280;67485;48.816;9.930;2023-06-10T04:50:06;96535.59;;;15.46;77.25
78210;BME280;67485;48.816;9.930;2023-06-10T04:52:31;96536.06;;;15.54;77.61
78210;BME280;67485;48.816;9.930;2023-06-10T04:54:59;96543.38;;;15.66;77.38
78210;BME280;67485;48.816;9.930;2023-06-10T04:57:25;96530.78;;;15.71;77.50
78210;BME280;67485;48.816;9.930;2023-06-10T04:59:52;96528.47;;;15.83;77.06
78210;BME280;67485;48.816;9.930;2023-06-10T05:02:18;96538.72;;;15.89;77.01
78210;BME280;67485;48.816;9.930;2023-06-10T05:04:43;96538.31;;;15.97;76.61
78210;BME280;67485;48.816;9.930;2023-06-10T05:07:09;96534.13;;;16.09;76.51
78210;BME280;67485;48.816;9.930;2023-06-10T05:09:35;96533.56;;;16.19;76.22
78210;BME280;67485;48.816;9.930;2023-06-10T05:12:01;96538.19;;;16.32;75.50
78210;BME280;67485;48.816;9.930;2023-06-10T05:14:27;96539.16;;;16.47;75.16
78210;BME280;67485;48.816;9.930;2023-06-10T05:16:53;96539.22;;;16.61;75.01
78210;BME280;67485;48.816;9.930;2023-06-10T05:19:19;96537.63;;;16.75;74.42
78210;BME280;67485;48.816;9.930;2023-06-10T05:21:45;96548.56;;;17.00;74.05
78210;BME280;67485;48.816;9.930;2023-06-10T05:24:11;96543.25;;;17.16;73.81
78210;BME280;67485;48.816;9.930;2023-06-10T05:26:37;96538.09;;;17.29;73.67
78210;BME280;67485;48.816;9.930;2023-06-10T05:29:04;96537.97;;;17.47;73.05
78210;BME280;67485;48.816;9.930;2023-06-10T05:31:30;96537.47;;;17.71;72.52
78210;BME280;67485;48.816;9.930;2023-06-10T05:33:55;96540.97;;;17.86;71.91
78210;BME280;67485;48.816;9.930;2023-06-10T05:36:21;96534.13;;;18.12;71.10
78210;BME280;67485;48.816;9.930;2023-06-10T05:38:47;96537.97;;;18.35;70.04
78210;BME280;67485;48.816;9.930;2023-06-10T05:41:13;96537.69;;;18.54;69.48
78210;BME280;67485;48.816;9.930;2023-06-10T05:43:38;96535.94;;;18.82;68.49
78210;BME280;67485;48.816;9.930;2023-06-10T05:46:04;96534.38;;;19.07;66.88
78210;BME280;67485;48.816;9.930;2023-06-10T05:48:30;96531.25;;;19.40;64.85
78210;BME280;67485;48.816;9.930;2023-06-10T05:50:56;96526.00;;;19.53;64.69
78210;BME280;67485;48.816;9.930;2023-06-10T05:53:21;96537.13;;;19.86;63.22
78210;BME280;67485;48.816;9.930;2023-06-10T05:55:47;96536.25;;;19.85;63.32
78210;BME280;67485;48.816;9.930;2023-06-10T05:58:14;96540.22;;;20.18;62.87
78210;BME280;67485;48.816;9.930;2023-06-10T06:00:40;96535.41;;;20.11;63.16
78210;BME280;67485;48.816;9.930;2023-06-10T06:03:07;96537.00;;;20.39;62.25
78210;BME280;67485;48.816;9.930;2023-06-10T06:05:36;96530.88;;;20.76;61.21
78210;BME280;67485;48.816;9.930;2023-06-10T06:08:06;96536.72;;;20.68;60.91
78210;BME280;67485;48.816;9.930;2023-06-10T06:10:32;96529.84;;;20.52;62.08
78210;BME280;67485;48.816;9.930;2023-06-10T06:12:58;96533.25;;;20.54;61.76
78210;BME280;67485;48.816;9.930;2023-06-10T06:15:24;96538.00;;;21.12;59.95
78210;BME280;67485;48.816;9.930;2023-06-10T06:17:50;96536.44;;;21.45;59.33
78210;BME280;67485;48.816;9.930;2023-06-10T06:20:20;96537.41;;;21.44;58.88
78210;BME280;67485;48.816;9.930;2023-06-10T06:22:46;96540.66;;;21.36;59.09
78210;BME280;67485;48.816;9.930;2023-06-10T06:25:12;96536.84;;;21.28;58.25
78210;BME280;67485;48.816;9.930;2023-06-10T06:27:38;96534.88;;;21.78;57.69
78210;BME280;67485;48.816;9.930;2023-06-10T06:30:04;96534.50;;;21.72;56.53
78210;BME280;67485;48.816;9.930;2023-06-10T06:32:30;96535.88;;;21.89;55.99
78210;BME280;67485;48.816;9.930;2023-06-10T06:34:56;96529.81;;;21.98;56.22
78210;BME280;67485;48.816;9.930;2023-06-10T06:37:23;96537.66;;;22.58;54.81
78210;BME280;67485;48.816;9.930;2023-06-10T06:39:52;96536.91;;;22.44;54.68
78210;BME280;67485;48.816;9.930;2023-06-10T06:42:19;96533.03;;;22.48;54.37
78210;BME280;67485;48.816;9.930;2023-06-10T06:45:01;96537.84;;;22.32;55.51
78210;BME280;67485;48.816;9.930;2023-06-10T06:47:26;96539.91;;;22.28;55.38
78210;BME280;67485;48.816;9.930;2023-06-10T06:49:52;96544.28;;;22.75;54.35
78210;BME280;67485;48.816;9.930;2023-06-10T06:52:18;96540.66;;;22.76;53.83
78210;BME280;67485;48.816;9.930;2023-06-10T06:54:44;96538.44;;;23.04;53.28
78210;BME280;67485;48.816;9.930;2023-06-10T06:57:10;96535.81;;;23.25;52.58
78210;BME280;67485;48.816;9.930;2023-06-10T06:59:36;96537.47;;;23.91;49.45
78210;BME280;67485;48.816;9.930;2023-06-10T07:02:03;96543.59;;;23.93;48.02
78210;BME280;67485;48.816;9.930;2023-06-10T07:04:29;96541.28;;;24.09;47.78
78210;BME280;67485;48.816;9.930;2023-06-10T07:06:54;96545.00;;;23.43;51.02
78210;BME280;67485;48.816;9.930;2023-06-10T07:09:20;96537.47;;;24.33;48.11
78210;BME280;67485;48.816;9.930;2023-06-10T07:11:46;96540.84;;;25.07;45.75
78210;BME280;67485;48.816;9.930;2023-06-10T07:14:11;96544.34;;;25.07;45.08
78210;BME280;67485;48.816;9.930;2023-06-10T07:16:37;96555.78;;;25.09;45.15
78210;BME280;67485;48.816;9.930;2023-06-10T07:19:03;96545.34;;;25.16;44.75
78210;BME280;67485;48.816;9.930;2023-06-10T07:21:30;96547.47;;;25.13;44.07
78210;BME280;67485;48.816;9.930;2023-06-10T07:23:55;96553.28;;;25.18;44.38
78210;BME280;67485;48.816;9.930;2023-06-10T07:26:22;96558.97;;;25.54;44.10
78210;BME280;67485;48.816;9.930;2023-06-10T07:29:12;96555.59;;;26.11;42.48
78210;BME280;67485;48.816;9.930;2023-06-10T07:31:38;96548.13;;;26.42;41.11
78210;BME280;67485;48.816;9.930;2023-06-10T07:34:04;96549.81;;;26.53;41.47
78210;BME280;67485;48.816;9.930;2023-06-10T07:36:30;96543.03;;;26.39;41.22
78210;BME280;67485;48.816;9.930;2023-06-10T07:38:55;96541.50;;;26.36;41.01
78210;BME280;67485;48.816;9.930;2023-06-10T07:41:23;96545.59;;;26.41;40.53
78210;BME280;67485;48.816;9.930;2023-06-10T07:43:50;96539.81;;;26.73;39.97
78210;BME280;67485;48.816;9.930;2023-06-10T07:46:21;96543.31;;;26.46;40.60
78210;BME280;67485;48.816;9.930;2023-06-10T07:48:47;96539.13;;;26.33;40.66
78210;BME280;67485;48.816;9.930;2023-06-10T07:51:17;96532.41;;;26.85;40.46
78210;BME280;67485;48.816;9.930;2023-06-10T07:53:43;96540.09;;;26.42;40.47
78210;BME280;67485;48.816;9.930;2023-06-10T07:56:08;96539.25;;;26.69;40.26
78210;BME280;67485;48.816;9.930;2023-06-10T07:58:34;96535.63;;;27.16;39.55
78210;BME280;67485;48.816;9.930;2023-06-10T08:01:00;96536.16;;;27.20;38.58
78210;BME280;67485;48.816;9.930;2023-06-10T08:03:26;96541.34;;;27.67;37.67
78210;BME280;67485;48.816;9.930;2023-06-10T08:05:51;96543.75;;;27.71;37.33
78210;BME280;67485;48.816;9.930;2023-06-10T08:08:17;96549.22;;;27.15;37.90
78210;BME280;67485;48.816;9.930;2023-06-10T08:10:43;96537.66;;;27.50;37.49
78210;BME280;67485;48.816;9.930;2023-06-10T08:13:08;96538.75;;;28.20;37.28
78210;BME280;67485;48.816;9.930;2023-06-10T08:15:34;96546.81;;;28.46;36.12
78210;BME280;67485;48.816;9.930;2023-06-10T08:18:00;96545.41;;;29.03;35.05
78210;BME280;67485;48.816;9.930;2023-06-10T08:20:26;96541.56;;;29.14;34.80
78210;BME280;67485;48.816;9.930;2023-06-10T08:22:51;96541.59;;;28.45;36.12
78210;BME280;67485;48.816;9.930;2023-06-10T08:25:17;96543.16;;;28.82;35.53
78210;BME280;67485;48.816;9.930;2023-06-10T08:27:43;96542.88;;;29.02;35.80
78210;BME280;67485;48.816;9.930;2023-06-10T08:30:09;96547.25;;;29.37;34.96
78210;BME280;67485;48.816;9.930;2023-06-10T08:32:36;96540.25;;;29.26;34.66
78210;BME280;67485;48.816;9.930;2023-06-10T08:35:02;96531.34;;;28.75;36.54
78210;BME280;67485;48.816;9.930;2023-06-10T08:37:28;96540.25;;;28.41;36.18
78210;BME280;67485;48.816;9.930;2023-06-10T08:39:54;96537.53;;;29.10;35.57
78210;BME280;67485;48.816;9.930;2023-06-10T08:42:35;96532.59;;;28.62;35.98
78210;BME280;67485;48.816;9.930;2023-06-10T08:45:04;96539.06;;;28.70;36.15
78210;BME280;67485;48.816;9.930;2023-06-10T08:47:34;96530.06;;;30.13;34.18
78210;BME280;67485;48.816;9.930;2023-06-10T08:50:04;96529.13;;;30.62;33.12
78210;BME280;67485;48.816;9.930;2023-06-10T08:52:37;96533.06;;;29.52;34.63
78210;BME280;67485;48.816;9.930;2023-06-10T08:55:10;96532.28;;;28.39;36.00
78210;BME280;67485;48.816;9.930;2023-06-10T08:57:37;96535.78;;;27.15;38.27
78210;BME280;67485;48.816;9.930;2023-06-10T09:00:04;96536.09;;;27.30;38.62
78210;BME280;67485;48.816;9.930;2023-06-10T09:02:31;96536.34;;;27.73;37.71
78210;BME280;67485;48.816;9.930;2023-06-10T09:05:06;96542.06;;;28.32;36.51
78210;BME280;67485;48.816;9.930;2023-06-10T09:07:35;96532.81;;;28.35;36.79
78210;BME280;67485;48.816;9.930;2023-06-10T09:10:02;96538.03;;;28.10;37.04
78210;BME280;67485;48.816;9.930;2023-06-10T09:12:29;96531.88;;;27.99;36.72
78210;BME280;67485;48.816;9.930;2023-06-10T09:14:55;96537.69;;;28.39;36.59
78210;BME280;67485;48.816;9.930;2023-06-10T09:17:22;96544.78;;;28.40;36.66
78210;BME280;67485;48.816;9.930;2023-06-10T09:19:48;96537.22;;;29.21;34.96
78210;BME280;67485;48.816;9.930;2023-06-10T09:22:14;96544.22;;;29.49;34.68
78210;BME280;67485;48.816;9.930;2023-06-10T09:24:41;96540.91;;;29.96;33.85
78210;BME280;67485;48.816;9.930;2023-06-10T09:27:08;96539.22;;;29.19;34.61
78210;BME280;67485;48.816;9.930;2023-06-10T09:32:12;96533.81;;;29.11;35.53
78210;BME280;67485;48.816;9.930;2023-06-10T09:34:39;96533.59;;;29.55;34.82
78210;BME280;67485;48.816;9.930;2023-06-10T09:37:05;96549.78;;;29.72;34.93
78210;BME280;67485;48.816;9.930;2023-06-10T09:39:31;96539.19;;;29.79;34.22
78210;BME280;67485;48.816;9.930;2023-06-10T09:41:56;96539.13;;;30.45;32.29
78210;BME280;67485;48.816;9.930;2023-06-10T09:44:22;96542.41;;;29.99;33.42
78210;BME280;67485;48.816;9.930;2023-06-10T09:46:50;96528.28;;;31.01;32.58
78210;BME280;67485;48.816;9.930;2023-06-10T09:49:16;96534.63;;;30.29;32.15
78210;BME280;67485;48.816;9.930;2023-06-10T09:51:53;96537.28;;;30.45;33.07
78210;BME280;67485;48.816;9.930;2023-06-10T09:54:20;96539.66;;;30.48;33.13
78210;BME280;67485;48.816;9.930;2023-06-10T09:56:50;96538.91;;;28.45;35.58
78210;BME280;67485;48.816;9.930;2023-06-10T09:59:28;96536.06;;;28.20;36.89
78210;BME280;67485;48.816;9.930;2023-06-10T10:01:57;96533.09;;;28.31;36.22
78210;BME280;67485;48.816;9.930;2023-06-10T10:04:24;96529.47;;;29.26;35.53
78210;BME280;67485;48.816;9.930;2023-06-10T10:06:51;96525.19;;;30.16;34.18
78210;BME280;67485;48.816;9.930;2023-06-10T10:09:16;96526.81;;;30.34;33.47
78210;BME280;67485;48.816;9.930;2023-06-10T10:11:43;96521.47;;;29.68;34.27
78210;BME280;67485;48.816;9.930;2023-06-10T10:14:10;96528.19;;;30.21;33.40
78210;BME280;67485;48.816;9.930;2023-06-10T10:16:37;96513.69;;;29.73;34.07
78210;BME280;67485;48.816;9.930;2023-06-10T10:19:18;96516.78;;;28.33;37.00
78210;BME280;67485;48.816;9.930;2023-06-10T10:21:54;96522.00;;;29.96;33.73
78210;BME280;67485;48.816;9.930;2023-06-10T10:24:46;96513.09;;;28.08;36.22
78210;BME280;67485;48.816;9.930;2023-06-10T10:27:18;96512.44;;;28.14;36.26
78210;BME280;67485;48.816;9.930;2023-06-10T10:29:48;96513.09;;;29.11;35.08
78210;BME280;67485;48.816;9.930;2023-06-10T10:32:18;96509.97;;;29.82;34.43
78210;BME280;67485;48.816;9.930;2023-06-10T10:34:57;96507.50;;;30.62;32.51
78210;BME280;67485;48.816;9.930;2023-06-10T10:37:26;96502.25;;;31.08;31.32
78210;BME280;67485;48.816;9.930;2023-06-10T10:39:52;96499.47;;;31.71;30.28
78210;BME280;67485;48.816;9.930;2023-06-10T10:42:18;96507.22;;;30.32;31.77
78210;BME280;67485;48.816;9.930;2023-06-10T10:44:44;96505.81;;;31.32;30.66
78210;BME280;67485;48.816;9.930;2023-06-10T10:47:13;96501.31;;;30.84;31.81
78210;BME280;67485;48.816;9.930;2023-06-10T10:49:43;96518.75;;;30.82;31.39
78210;BME280;67485;48.816;9.930;2023-06-10T10:52:11;96507.19;;;31.51;30.47
78210;BME280;67485;48.816;9.930;2023-06-10T10:54:44;96507.44;;;30.78;31.08
78210;BME280;67485;48.816;9.930;2023-06-10T10:57:17;96507.59;;;31.71;30.45
78210;BME280;67485;48.816;9.930;2023-06-10T11:04:58;96504.91;;;31.40;30.41
78210;BME280;67485;48.816;9.930;2023-06-10T11:07:30;96503.53;;;32.28;29.36
78210;BME280;67485;48.816;9.930;2023-06-10T11:10:10;96487.34;;;31.59;30.85
78210;BME280;67485;48.816;9.930;2023-06-10T11:15:13;96497.91;;;29.27;32.79
78210;BME280;67485;48.816;9.930;2023-06-10T11:18:10;96493.59;;;29.51;32.93
78210;BME280;67485;48.816;9.930;2023-06-10T11:23:11;96497.41;;;30.39;31.97
78210;BME280;67485;48.816;9.930;2023-06-10T11:25:49;96497.84;;;29.70;31.85
78210;BME280;67485;48.816;9.930;2023-06-10T11:28:19;96503.34;;;30.82;31.43
78210;BME280;67485;48.816;9.930;2023-06-10T11:30:45;96497.72;;;30.92;30.26
78210;BME280;67485;48.816;9.930;2023-06-10T11:33:16;96491.63;;;32.14;28.72
78210;BME280;67485;48.816;9.930;2023-06-10T11:35:43;96489.94;;;32.13;28.31
78210;BME280;67485;48.816;9.930;2023-06-10T11:38:09;96486.53;;;32.64;28.18
78210;BME280;67485;48.816;9.930;2023-06-10T11:40:36;96488.00;;;31.14;30.02
78210;BME280;67485;48.816;9.930;2023-06-10T11:43:03;96489.31;;;30.87;30.57
78210;BME280;67485;48.816;9.930;2023-06-10T11:45:30;96486.31;;;30.25;31.11
78210;BME280;67485;48.816;9.930;2023-06-10T11:47:59;96479.78;;;30.60;30.61
78210;BME280;67485;48.816;9.930;2023-06-10T11:50:32;96476.44;;;31.29;30.07
78210;BME280;67485;48.816;9.930;2023-06-10T11:52:58;96481.28;;;31.80;29.80
78210;BME280;67485;48.816;9.930;2023-06-10T11:55:26;96483.00;;;29.41;32.81
78210;BME280;67485;48.816;9.930;2023-06-10T11:58:03;96486.66;;;27.85;35.17
78210;BME280;67485;48.816;9.930;2023-06-10T12:00:28;96475.69;;;28.31;34.34
78210;BME280;67485;48.816;9.930;2023-06-10T12:02:56;96486.56;;;28.90;33.74
78210;BME280;67485;48.816;9.930;2023-06-10T12:05:23;96481.13;;;29.50;33.16
78210;BME280;67485;48.816;9.930;2023-06-10T12:07:48;96483.31;;;29.63;31.89
78210;BME280;67485;48.816;9.930;2023-06-10T12:10:14;96479.75;;;30.12;31.66
78210;BME280;67485;48.816;9.930;2023-06-10T12:12:41;96462.63;;;30.84;31.21
78210;BME280;67485;48.816;9.930;2023-06-10T12:15:07;96467.81;;;30.94;30.29
78210;BME280;67485;48.816;9.930;2023-06-10T12:20:26;96463.47;;;30.84;30.22
78210;BME280;67485;48.816;9.930;2023-06-10T12:22:52;96464.63;;;31.21;30.53
78210;BME280;67485;48.816;9.930;2023-06-10T12:25:24;96459.69;;;31.48;29.56
78210;BME280;67485;48.816;9.930;2023-06-10T12:27:52;96453.66;;;31.84;29.56
78210;BME280;67485;48.816;9.930;2023-06-10T12:30:22;96454.81;;;32.65;28.46
78210;BME280;67485;48.816;9.930;2023-06-10T12:32:50;96451.81;;;32.60;28.41
78210;BME280;67485;48.816;9.930;2023-06-10T12:35:17;96461.41;;;31.88;29.91
78210;BME280;67485;48.816;9.930;2023-06-10T12:38:00;96467.53;;;30.80;31.44
78210;BME280;67485;48.816;9.930;2023-06-10T12:40:30;96465.03;;;30.22;31.95
78210;BME280;67485;48.816;9.930;2023-06-10T12:42:57;96474.53;;;29.85;32.80
78210;BME280;67485;48.816;9.930;2023-06-10T12:45:28;96472.97;;;30.24;32.10
78210;BME280;67485;48.816;9.930;2023-06-10T12:48:12;96467.66;;;30.55;31.74
78210;BME280;67485;48.816;9.930;2023-06-10T12:50:42;96460.28;;;30.33;31.79
78210;BME280;67485;48.816;9.930;2023-06-10T12:53:09;96465.25;;;30.61;31.11
78210;BME280;67485;48.816;9.930;2023-06-10T12:55:35;96461.66;;;31.08;30.70
78210;BME280;67485;48.816;9.930;2023-06-10T12:58:01;96455.72;;;31.13;30.79
78210;BME280;67485;48.816;9.930;2023-06-10T13:00:27;96445.91;;;31.35;30.69
78210;BME280;67485;48.816;9.930;2023-06-10T13:02:56;96450.09;;;30.51;31.86
78210;BME280;67485;48.816;9.930;2023-06-10T13:05:22;96460.88;;;30.60;31.74
78210;BME280;67485;48.816;9.930;2023-06-10T13:07:48;96454.41;;;31.00;30.88
78210;BME280;67485;48.816;9.930;2023-06-10T13:10:15;96452.16;;;31.12;30.22
78210;BME280;67485;48.816;9.930;2023-06-10T13:12:42;96452.00;;;31.37;30.88
78210;BME280;67485;48.816;9.930;2023-06-10T13:15:08;96446.75;;;31.12;30.87
78210;BME280;67485;48.816;9.930;2023-06-10T13:17:34;96451.41;;;30.95;30.81
78210;BME280;67485;48.816;9.930;2023-06-10T13:20:05;96448.31;;;30.98;31.19